Time;durP1;ratioP1;P1;durP2;ratioP2;P2;SDS_P1;SDS_P2;PMS_P1;PMS_P2;Temp;Humidity;BMP_temperature;BMP_pressure;BME280_temperature;BME280_humidity;BME280_pressure;Samples;Min_cycle;Max_cycle;Signal;HPM_P1;HPM_P2
2023/10/29 07:23:12;;;;;;;4.95;2.50;;;;;;;-145.79;100.00;76052.72;5217541;27;1230694;-68
2023/10/29 07:25:44;;;;;;;4.60;2.13;;;;;;;-145.79;100.00;76042.13;5243471;28;20026;-68
2023/10/29 07:28:16;;;;;;;4.82;2.58;;;;;;;-145.79;100.00;76054.84;5237418;28;20555;-69
2023/10/29 07:30:48;;;;;;;8.23;2.45;;;;;;;-145.79;100.00;76059.09;5242571;28;20152;-69
2023/10/29 07:33:19;;;;;;;7.35;2.92;;;;;;;-145.79;100.00;76063.31;5242807;28;20513;-67
2023/10/29 07:35:51;;;;;;;6.85;1.95;;;;;;;-145.79;100.00;76067.56;5243115;28;20030;-68
2023/10/29 07:38:22;;;;;;;5.95;2.38;;;;;;;-145.79;100.00;76054.84;5239405;28;20385;-68
2023/10/29 07:40:56;;;;;;;8.32;2.38;;;;;;;-145.79;99.69;76054.84;5238208;28;20523;-68
2023/10/29 07:43:28;;;;;;;7.03;2.47;;;;;;;-145.79;99.50;76052.72;5237177;28;20469;-68
2023/10/29 07:46:04;;;;;;;5.70;1.90;;;;;;;-145.79;98.38;76046.38;5232937;28;20025;-68
2023/10/29 07:48:35;;;;;;;8.75;2.92;;;;;;;-145.79;98.68;76037.88;5235341;28;20095;-69
2023/10/29 07:51:09;;;;;;;8.68;2.63;;;;;;;-145.79;97.17;76042.13;5239473;28;20025;-67
2023/10/29 07:53:43;;;;;;;5.63;2.20;;;;;;;-145.79;96.96;76042.13;5238786;28;20033;-68
2023/10/29 07:56:15;;;;;;;6.38;2.30;;;;;;;-145.79;96.99;76046.38;5239164;28;20385;-67
2023/10/29 07:58:46;;;;;;;5.95;1.90;;;;;;;-145.79;95.68;76037.88;5237929;28;20029;-68
2023/10/29 08:01:18;;;;;;;7.30;1.95;;;;;;;-145.79;94.97;76033.66;5241181;28;20030;-68
2023/10/29 08:03:50;;;;;;;7.88;2.50;;;;;;;-145.79;94.46;76029.41;5238392;28;20913;-67
2023/10/29 08:06:21;;;;;;;9.55;2.45;;;;;;;-145.79;94.21;76025.19;5238625;28;20105;-67
2023/10/29 08:08:53;;;;;;;7.97;2.60;;;;;;;-145.79;92.96;76023.06;5236800;28;20025;-67
2023/10/29 08:11:24;;;;;;;4.68;1.98;;;;;;;-145.79;93.00;76018.81;5239135;28;20029;-67
2023/10/29 08:13:56;;;;;;;8.80;2.55;;;;;;;-145.79;93.24;76016.69;5239433;28;20045;-68
2023/10/29 08:16:28;;;;;;;5.43;2.10;;;;;;;-145.79;92.55;76025.19;5238992;28;20511;-68
2023/10/29 08:18:59;;;;;;;7.03;1.80;;;;;;;-145.79;92.07;76016.69;5233007;28;20026;-67
2023/10/29 08:21:31;;;;;;;4.68;2.88;;;;;;;-145.79;92.72;76025.19;5241610;28;20053;-68
2023/10/29 08:24:02;;;;;;;7.32;2.67;;;;;;;-145.79;92.30;76029.41;5259145;28;20477;-68
2023/10/29 08:26:34;;;;;;;5.32;2.20;;;;;;;-145.79;92.87;76023.06;5264416;28;20033;-67
2023/10/29 08:29:05;;;;;;;7.40;2.65;;;;;;;-145.79;92.81;76027.28;5260651;28;20051;-66
2023/10/29 08:31:37;;;;;;;4.65;2.00;;;;;;;-145.79;91.40;76016.69;5258505;28;20103;-67
2023/10/29 08:34:08;;;;;;;8.30;2.30;;;;;;;-145.79;90.92;76012.47;5247652;28;20104;-67
2023/10/29 08:36:39;;;;;;;5.18;2.00;;;;;;;-145.79;91.58;76012.47;5245459;28;20041;-67
2023/10/29 08:39:10;;;;;;;4.90;1.70;;;;;;;-145.79;89.84;76012.47;5243321;28;20133;-67
2023/10/29 08:41:42;;;;;;;6.50;1.98;;;;;;;-145.79;89.29;76004.00;5242923;28;20022;-67
2023/10/29 08:44:13;;;;;;;6.72;1.73;;;;;;;-145.79;88.52;76008.22;5243332;28;20135;-67
2023/10/29 08:46:46;;;;;;;8.38;2.05;;;;;;;-145.79;86.72;76016.69;5241998;28;20194;-67
2023/10/29 08:49:17;;;;;;;3.92;2.40;;;;;;;-145.79;88.23;76016.69;5246543;28;20156;-65
2023/10/29 08:51:49;;;;;;;5.80;1.58;;;;;;;-145.79;89.03;76008.22;5242459;28;20108;-67
2023/10/29 08:54:23;;;;;;;4.78;1.40;;;;;;;-145.79;86.81;76020.94;5243804;28;20029;-67
2023/10/29 08:56:55;;;;;;;5.72;1.80;;;;;;;-145.79;85.75;76031.53;5237193;28;20021;-67
2023/10/29 08:59:26;;;;;;;6.93;1.98;;;;;;;-145.79;86.77;76025.19;5239567;28;20033;-67
2023/10/29 09:01:57;;;;;;;6.88;2.33;;;;;;;-145.79;86.42;76025.19;5240414;28;20079;-67
2023/10/29 09:04:29;;;;;;;10.02;3.67;;;;;;;-145.79;85.11;76016.69;5243507;28;20025;-67
2023/10/29 09:07:00;;;;;;;5.22;1.65;;;;;;;-145.79;85.40;76025.19;5244407;28;20488;-67
2023/10/29 09:09:32;;;;;;;4.53;1.70;;;;;;;-145.79;85.24;76031.53;5245174;28;20060;-67
2023/10/29 09:12:03;;;;;;;9.32;2.58;;;;;;;-145.79;85.48;76023.06;5245811;28;20057;-66
2023/10/29 09:14:34;;;;;;;6.20;2.45;;;;;;;-145.79;85.13;76016.69;5240761;28;20396;-67
2023/10/29 09:17:06;;;;;;;8.52;2.55;;;;;;;-145.79;85.45;76031.53;5244761;28;20101;-67
2023/10/29 09:19:37;;;;;;;5.78;1.80;;;;;;;-145.79;85.91;76037.88;5239795;28;20395;-67
2023/10/29 09:22:08;;;;;;;7.85;2.25;;;;;;;-145.79;84.89;76042.13;5244783;28;20540;-67
2023/10/29 09:24:40;;;;;;;6.28;3.28;;;;;;;-145.79;84.67;76046.38;5244951;28;20130;-68
2023/10/29 09:27:11;;;;;;;7.25;2.40;;;;;;;-145.79;85.07;76037.88;5241448;28;20109;-67
2023/10/29 09:29:43;;;;;;;8.20;2.28;;;;;;;-145.79;84.26;76031.53;5240031;28;20025;-66
2023/10/29 09:32:15;;;;;;;5.57;2.08;;;;;;;-145.79;84.75;76031.53;5241089;28;20026;-67
2023/10/29 09:34:46;;;;;;;4.75;2.17;;;;;;;-145.79;83.99;76018.81;5242353;28;20024;-67
2023/10/29 09:37:17;;;;;;;6.38;2.05;;;;;;;-145.79;83.79;76006.09;5243647;28;20124;-67
2023/10/29 09:39:48;;;;;;;7.63;2.53;;;;;;;-145.79;84.14;75999.75;5244945;28;20060;-67
2023/10/29 09:42:24;;;;;;;6.50;2.22;;;;;;;-145.79;83.97;76012.47;5241815;28;20021;-66
2023/10/29 09:44:58;;;;;;;4.70;2.53;;;;;;;-145.79;83.39;76008.22;5239626;28;20028;-66
2023/10/29 09:47:31;;;;;;;5.07;1.48;;;;;;;-145.79;82.55;76006.09;5249371;28;20408;-66
2023/10/29 09:50:02;;;;;;;6.72;2.25;;;;;;;-145.79;82.88;75999.75;5248087;28;20039;-66
2023/10/29 09:52:34;;;;;;;7.00;1.70;;;;;;;-145.79;82.34;76012.47;5243699;28;20017;-67
2023/10/29 09:55:07;;;;;;;6.15;2.13;;;;;;;-145.79;81.87;76014.59;5242321;28;20057;-67
2023/10/29 09:57:39;;;;;;;5.93;1.75;;;;;;;-145.79;81.52;76008.22;5241777;28;20069;-68
2023/10/29 10:00:11;;;;;;;4.70;1.98;;;;;;;-145.79;81.53;75999.75;5248875;28;20067;-67
2023/10/29 10:02:53;;;;;;;7.57;2.10;;;;;;;-145.79;80.38;75991.28;5242123;28;20076;-66
2023/10/29 10:05:27;;;;;;;6.45;2.17;;;;;;;-145.79;80.56;75989.16;5244454;28;20025;-68
2023/10/29 10:07:59;;;;;;;5.10;1.85;;;;;;;-145.79;81.04;75989.16;5243753;28;20025;-67
2023/10/29 10:10:38;;;;;;;7.97;2.00;;;;;;;-145.79;81.69;75991.28;5241754;28;20017;-67
2023/10/29 10:13:10;;;;;;;8.98;2.97;;;;;;;-145.79;81.40;75999.75;5243516;28;20112;-68
2023/10/29 10:15:43;;;;;;;6.13;1.85;;;;;;;-145.79;81.73;75993.41;5241281;28;20392;-68
2023/10/29 10:18:15;;;;;;;7.65;2.90;;;;;;;-145.79;82.53;75991.28;5244810;28;20479;-68
2023/10/29 10:20:56;;;;;;;7.45;1.83;;;;;;;-145.79;82.54;75987.03;5245264;28;20033;-68
2023/10/29 10:23:45;;;;;;;7.65;1.95;;;;;;;-145.79;81.39;75982.81;5243212;28;20100;-68
2023/10/29 10:26:34;;;;;;;6.93;1.98;;;;;;;-145.79;82.03;75982.81;5241028;28;20025;-68
2023/10/29 10:29:07;;;;;;;12.35;2.30;;;;;;;-145.79;82.68;75980.69;5241299;28;20017;-66
2023/10/29 10:31:38;;;;;;;5.30;1.92;;;;;;;-145.79;83.59;75978.56;5243224;28;20029;-67
2023/10/29 10:34:12;;;;;;;4.65;2.10;;;;;;;-145.79;82.85;75974.31;5240109;28;20118;-67
2023/10/29 10:36:51;;;;;;;6.15;2.22;;;;;;;-145.79;82.43;75970.09;5239385;28;20029;-67
2023/10/29 10:39:22;;;;;;;5.43;1.90;;;;;;;-145.79;82.05;75974.31;5235968;28;20021;-68
2023/10/29 10:41:55;;;;;;;4.80;2.15;;;;;;;-145.79;82.06;75978.56;5233885;28;20033;-68
2023/10/29 10:44:29;;;;;;;8.48;2.33;;;;;;;-145.79;81.85;75987.03;5246022;28;20021;-68
2023/10/29 10:47:03;;;;;;;5.30;2.08;;;;;;;-145.79;82.42;75991.28;5246072;28;20036;-69
2023/10/29 10:49:35;;;;;;;4.70;1.70;;;;;;;-145.79;82.08;75995.50;5241214;28;20032;-69
2023/10/29 10:52:08;;;;;;;9.25;3.70;;;;;;;-145.79;82.53;75995.50;5239159;28;20044;-69
2023/10/29 10:54:42;;;;;;;8.10;2.08;;;;;;;-145.79;83.41;75999.75;5249439;28;20021;-67
2023/10/29 10:57:16;;;;;;;6.67;2.53;;;;;;;-145.79;83.52;75993.41;5244812;28;20534;-67
2023/10/29 10:59:49;;;;;;;7.20;2.30;;;;;;;-145.79;83.27;75997.63;5242352;28;20280;-68
2023/10/29 11:02:21;;;;;;;8.35;3.28;;;;;;;-145.79;83.36;75991.28;5245292;28;20025;-68
2023/10/29 11:04:54;;;;;;;8.20;2.47;;;;;;;-145.79;83.11;75999.75;5246834;28;20106;-68
2023/10/29 11:07:26;;;;;;;8.30;3.38;;;;;;;-145.79;83.54;75995.50;5248639;28;20542;-67
2023/10/29 11:09:58;;;;;;;4.72;2.17;;;;;;;-145.79;83.92;76008.22;5243694;28;20036;-67
2023/10/29 11:12:34;;;;;;;5.47;1.95;;;;;;;-145.79;84.61;76010.34;5243034;28;20104;-67
2023/10/29 11:15:21;;;;;;;7.13;2.25;;;;;;;-145.79;84.25;76004.00;5240382;28;20057;-67
2023/10/29 11:18:02;;;;;;;6.85;2.20;;;;;;;-145.79;84.18;75989.16;5240711;28;20116;-69
2023/10/29 11:20:41;;;;;;;10.30;3.80;;;;;;;-145.79;84.37;75991.28;5241587;28;20025;-67
2023/10/29 11:23:13;;;;;;;6.50;2.35;;;;;;;-145.79;84.58;75989.16;5241478;28;20516;-68
2023/10/29 11:25:45;;;;;;;10.23;2.50;;;;;;;-145.79;85.24;75984.91;5245732;28;20025;-68
2023/10/29 11:28:26;;;;;;;8.77;2.50;;;;;;;-145.79;85.23;75967.97;5249844;28;20167;-67
2023/10/29 11:31:19;;;;;;;5.95;2.95;;;;;;;-145.79;85.64;75965.84;5255353;28;20368;-68
2023/10/29 11:33:56;;;;;;;9.23;2.55;;;;;;;-145.79;85.56;75965.84;5250339;28;20354;-68
2023/10/29 11:36:32;;;;;;;7.88;3.45;;;;;;;-145.79;85.87;75967.97;5248616;28;20481;-68
2023/10/29 11:39:16;;;;;;;5.35;2.63;;;;;;;-145.79;85.61;75961.63;5251803;28;20032;-68
2023/10/29 11:41:48;;;;;;;4.78;2.63;;;;;;;-145.79;85.72;75955.25;5245072;28;20052;-68
2023/10/29 11:44:24;;;;;;;7.60;2.88;;;;;;;-145.79;86.04;75938.31;5235531;28;20112;-68
2023/10/29 11:46:56;;;;;;;5.38;1.70;;;;;;;-145.79;85.91;75921.34;5242027;28;20040;-68
2023/10/29 11:49:51;;;;;;;4.80;2.22;;;;;;;-145.79;85.40;75919.22;5249204;28;20033;-67
2023/10/29 11:52:27;;;;;;;5.40;2.80;;;;;;;-145.79;85.58;75919.22;5241446;28;20037;-68
2023/10/29 11:55:02;;;;;;;9.48;2.58;;;;;;;-145.79;86.16;75908.63;5254212;28;20380;-68
2023/10/29 11:57:34;;;;;;;5.95;2.35;;;;;;;-145.79;86.04;75915.00;5246515;28;20026;-68
2023/10/29 12:00:07;;;;;;;5.05;2.15;;;;;;;-145.79;84.91;75906.53;5250068;28;20033;-68
2023/10/29 12:02:41;;;;;;;9.40;2.92;;;;;;;-145.79;85.27;75898.03;5220730;28;20498;-67
2023/10/29 12:05:15;;;;;;;7.47;2.20;;;;;;;-145.79;85.15;75889.56;5248239;28;20104;-68
2023/10/29 12:07:46;;;;;;;9.75;2.17;;;;;;;-145.79;84.87;75902.28;5250690;28;20530;-66
2023/10/29 12:10:17;;;;;;;8.48;2.55;;;;;;;-145.79;85.35;75908.63;5250711;28;20025;-66
2023/10/29 12:12:53;;;;;;;5.82;2.15;;;;;;;-145.79;85.17;75915.00;5250392;28;20452;-66
2023/10/29 12:15:24;;;;;;;;;;;;;;;-145.79;84.68;75910.75;5252556;28;20041;-66
2023/10/29 12:17:55;;;;;;;9.60;2.25;;;;;;;-145.79;84.57;75929.81;5244646;28;19952;-65
2023/10/29 12:20:28;;;;;;;5.53;2.53;;;;;;;-145.79;84.24;75910.75;5253751;28;20072;-67
2023/10/29 12:23:02;;;;;;;8.13;3.92;;;;;;;-145.79;84.54;75904.41;5246224;28;20395;-68
2023/10/29 12:25:34;;;;;;;6.97;2.30;;;;;;;-145.79;84.42;75902.28;5249106;28;20034;-68
2023/10/29 12:28:08;;;;;;;5.55;2.10;;;;;;;-145.79;83.92;75906.53;5249249;28;20026;-67
2023/10/29 12:30:47;;;;;;;3.08;1.85;;;;;;;-145.79;84.09;75906.53;5247696;28;20055;-67
2023/10/29 12:33:25;;;;;;;8.63;2.20;;;;;;;-145.79;84.02;75912.88;5249899;28;20021;-66
2023/10/29 12:36:01;;;;;;;7.22;2.30;;;;;;;-145.79;84.87;75904.41;5245766;28;20029;-67
2023/10/29 12:38:37;;;;;;;5.50;1.73;;;;;;;-145.79;84.73;75912.88;5244670;28;20025;-67
2023/10/29 12:41:14;;;;;;;6.30;1.90;;;;;;;-145.79;84.82;75912.88;5248594;28;20033;-67
2023/10/29 12:43:47;;;;;;;4.25;1.90;;;;;;;-145.79;85.17;75908.63;5243757;28;20104;-68
2023/10/29 12:46:21;;;;;;;6.90;2.00;;;;;;;-145.79;85.10;75906.53;5244258;28;20519;-67
2023/10/29 12:49:03;;;;;;;4.15;1.77;;;;;;;-145.79;84.29;75872.63;5246661;28;20522;-68
2023/10/29 12:51:37;;;;;;;11.50;10.00;;;;;;;-145.79;82.83;75849.31;5251554;28;20531;-68
2023/10/29 12:54:17;;;;;;;6.53;2.20;;;;;;;-145.79;81.76;75851.44;5236253;28;20028;-68
2023/10/29 12:56:52;;;;;;;4.38;1.83;;;;;;;-145.79;81.00;75847.19;5252605;28;20029;-68
2023/10/29 12:59:32;;;;;;;3.67;1.90;;;;;;;-145.79;80.72;75847.19;5251680;28;20071;-66
2023/10/29 13:02:05;;;;;;;2.92;1.45;;;;;;;-145.79;81.03;75845.06;5257516;28;20037;-67
2023/10/29 13:04:37;;;;;;;7.38;1.90;;;;;;;-145.79;81.04;75842.97;5253027;28;20029;-66
2023/10/29 13:07:08;;;;;;;3.50;1.52;;;;;;;-145.79;81.62;75840.84;5255124;28;20112;-67
2023/10/29 13:09:42;;;;;;;4.50;1.90;;;;;;;-145.79;82.40;75845.06;5252201;28;20037;-66
2023/10/29 13:12:15;;;;;;;6.53;2.40;;;;;;;-145.79;81.58;75845.06;5252953;28;20021;-67
2023/10/29 13:14:47;;;;;;;5.63;1.90;;;;;;;-145.79;82.04;75842.97;5254524;28;20109;-66
2023/10/29 13:17:19;;;;;;;5.97;1.90;;;;;;;-145.79;82.23;75838.72;5246819;28;20116;-68
2023/10/29 13:19:51;;;;;;;4.85;1.80;;;;;;;-145.79;83.07;75840.84;5249158;28;20495;-67
2023/10/29 13:22:23;;;;;;;5.20;2.25;;;;;;;-145.79;85.38;75847.19;5256669;28;20503;-66
2023/10/29 13:24:55;;;;;;;5.30;1.92;;;;;;;-145.79;87.41;75864.16;5240366;28;20021;-67
2023/10/29 13:27:27;;;;;;;4.65;1.92;;;;;;;-145.79;89.21;75883.22;5241843;28;20034;-68
2023/10/29 13:29:58;;;;;;;6.63;2.15;;;;;;;-145.79;90.38;75887.44;5243842;28;20036;-66
2023/10/29 13:32:30;;;;;;;7.10;2.20;;;;;;;-145.79;92.63;75891.69;5242915;28;20032;-67
2023/10/29 13:35:02;;;;;;;8.25;2.85;;;;;;;-145.79;94.65;75895.94;5241384;28;20038;-66
2023/10/29 13:37:33;;;;;;;7.25;2.10;;;;;;;-145.79;95.63;75902.28;5243265;28;20017;-67
2023/10/29 13:40:06;;;;;;;4.90;2.20;;;;;;;-145.79;96.28;75898.03;5247471;28;20048;-67
2023/10/29 13:42:37;;;;;;;6.38;2.55;;;;;;;-145.79;97.41;75908.63;5247055;28;20110;-67
2023/10/29 13:45:11;;;;;;;5.43;2.90;;;;;;;-145.79;98.83;75919.22;5243567;28;20116;-67
2023/10/29 13:47:43;;;;;;;16.70;12.82;;;;;;;-145.79;99.55;75912.88;5241860;28;20037;-68
2023/10/29 13:50:14;;;;;;;7.13;4.30;;;;;;;-145.79;100.00;75900.16;5239208;28;20032;-66
2023/10/29 13:52:45;;;;;;;7.15;2.88;;;;;;;-145.79;100.00;75904.41;5242274;28;20025;-68
2023/10/29 13:55:20;;;;;;;10.65;5.80;;;;;;;-145.79;100.00;75900.16;5241255;28;20029;-67
2023/10/29 13:57:51;;;;;;;6.38;3.10;;;;;;;-145.79;100.00;75895.94;5242770;28;20022;-68
2023/10/29 14:00:25;;;;;;;7.13;3.13;;;;;;;-145.79;100.00;75891.69;5246070;28;20032;-69
2023/10/29 14:02:57;;;;;;;5.70;3.42;;;;;;;-145.79;100.00;75876.84;5237942;28;20041;-68
2023/10/29 14:05:28;;;;;;;7.50;3.28;;;;;;;-145.79;100.00;75878.97;5243232;28;20112;-67
2023/10/29 14:08:00;;;;;;;6.43;3.00;;;;;;;-145.79;100.00;75889.56;5243681;28;20496;-67
2023/10/29 14:10:31;;;;;;;5.28;2.58;;;;;;;-145.79;100.00;75881.09;5239698;28;20033;-67
2023/10/29 14:13:03;;;;;;;7.13;2.60;;;;;;;-145.79;100.00;75874.75;5241237;28;20437;-66
2023/10/29 14:15:34;;;;;;;8.30;2.50;;;;;;;-145.79;100.00;75864.16;5239366;28;20056;-67
2023/10/29 14:18:06;;;;;;;7.20;2.60;;;;;;;-145.79;100.00;75870.50;5240948;28;20053;-67
2023/10/29 14:20:38;;;;;;;9.13;2.70;;;;;;;-145.79;100.00;75864.16;5242262;28;20489;-67
2023/10/29 14:23:09;;;;;;;3.25;1.92;;;;;;;-145.79;100.00;75855.66;5248190;28;20045;-66
2023/10/29 14:25:40;;;;;;;4.57;1.70;;;;;;;-145.79;100.00;75859.91;5252488;28;20032;-66
2023/10/29 14:28:12;;;;;;;4.20;2.17;;;;;;;-145.79;100.00;75864.16;5243947;28;20100;-67
2023/10/29 14:30:43;;;;;;;24.75;21.83;;;;;;;-145.79;100.00;75868.38;5252001;28;20052;-67
2023/10/29 14:33:14;;;;;;;3.55;2.47;;;;;;;-145.79;100.00;75881.09;5251454;28;20116;-67
2023/10/29 14:35:45;;;;;;;3.10;1.40;;;;;;;-145.79;100.00;75883.22;5252138;28;20025;-67
2023/10/29 14:38:17;;;;;;;1.27;1.10;;;;;;;-145.79;100.00;75895.94;5243967;28;20025;-68
2023/10/29 14:40:51;;;;;;;2.42;1.13;;;;;;;-145.79;100.00;75927.72;5250822;28;20053;-68
2023/10/29 14:43:24;;;;;;;3.25;1.48;;;;;;;-145.79;100.00;75923.47;5249368;28;20404;-68
2023/10/29 14:46:02;;;;;;;2.13;0.95;;;;;;;-145.79;100.00;75912.88;5252384;28;20078;-69
2023/10/29 14:48:34;;;;;;;3.47;2.00;;;;;;;-145.79;100.00;75921.34;5248830;28;20033;-69
2023/10/29 14:51:05;;;;;;;2.28;1.48;;;;;;;-145.79;100.00;75934.06;5252487;28;20017;-67
2023/10/29 14:53:36;;;;;;;2.70;1.42;;;;;;;-145.79;100.00;75938.31;5251622;28;20160;-67
2023/10/29 14:56:08;;;;;;;1.92;1.65;;;;;;;-145.79;100.00;75940.41;5253671;28;20025;-68
2023/10/29 14:58:39;;;;;;;1.67;1.20;;;;;;;-145.79;100.00;75936.19;5247894;28;20504;-67
2023/10/29 15:01:10;;;;;;;1.40;0.93;;;;;;;-145.79;100.00;75931.94;5251880;28;20079;-67
2023/10/29 15:03:43;;;;;;;2.90;1.30;;;;;;;-145.79;100.00;75936.19;5245321;28;20036;-67
2023/10/29 15:06:15;;;;;;;2.45;1.63;;;;;;;-145.79;100.00;75927.72;5247772;28;20039;-68
2023/10/29 15:08:47;;;;;;;2.17;1.50;;;;;;;-145.79;100.00;75929.81;5242680;28;20404;-67
2023/10/29 15:11:19;;;;;;;2.70;1.40;;;;;;;-145.79;100.00;75927.72;5249482;28;20029;-68
2023/10/29 15:13:50;;;;;;;3.08;1.30;;;;;;;-145.79;100.00;75927.72;5249749;28;20021;-68
2023/10/29 15:16:21;;;;;;;2.85;1.92;;;;;;;-145.79;100.00;75927.72;5256097;28;20116;-68
2023/10/29 15:18:54;;;;;;;2.83;1.50;;;;;;;-145.79;100.00;75923.47;5251712;28;20514;-69
2023/10/29 15:21:25;;;;;;;2.20;1.10;;;;;;;-145.79;100.00;75919.22;5254089;28;20048;-68
2023/10/29 15:23:59;;;;;;;1.42;0.90;;;;;;;-145.79;100.00;75917.13;5251567;28;20041;-68
2023/10/29 15:26:31;;;;;;;1.77;0.88;;;;;;;-145.79;100.00;75919.22;5250532;28;20020;-68
2023/10/29 15:29:02;;;;;;;2.15;1.13;;;;;;;-145.79;100.00;75923.47;5252514;28;20030;-68
2023/10/29 15:31:34;;;;;;;3.20;2.08;;;;;;;-145.79;100.00;75919.22;5252523;28;20473;-68
2023/10/29 15:34:05;;;;;;;2.38;1.40;;;;;;;-145.79;100.00;75919.22;5239736;28;20025;-70
2023/10/29 15:36:36;;;;;;;4.82;1.35;;;;;;;-145.79;100.00;75908.63;5244101;28;20096;-67
2023/10/29 15:39:08;;;;;;;1.65;1.33;;;;;;;-145.79;100.00;75910.75;5247114;28;20036;-68
2023/10/29 15:41:42;;;;;;;1.30;1.20;;;;;;;-145.79;100.00;75919.22;5240080;28;20057;-68
2023/10/29 15:44:13;;;;;;;2.38;1.30;;;;;;;-145.79;100.00;75912.88;5242744;28;20029;-67
2023/10/29 15:46:45;;;;;;;2.28;1.00;;;;;;;-145.79;100.00;75912.88;5243112;28;20018;-68
2023/10/29 15:49:16;;;;;;;4.25;3.22;;;;;;;-145.79;100.00;75919.22;5249614;28;20465;-67
2023/10/29 15:51:50;;;;;;;3.78;2.30;;;;;;;-145.79;100.00;75923.47;5241919;28;20025;-67
2023/10/29 15:54:22;;;;;;;2.97;1.33;;;;;;;-145.79;100.00;75923.47;5243152;28;20435;-67
2023/10/29 15:56:53;;;;;;;3.20;1.13;;;;;;;-145.79;100.00;75923.47;5245715;28;20059;-67
2023/10/29 15:59:24;;;;;;;2.47;1.85;;;;;;;-145.79;100.00;75927.72;5244971;28;20040;-66
2023/10/29 16:01:56;;;;;;;2.75;1.70;;;;;;;-145.79;100.00;75923.47;5241625;28;20401;-66
2023/10/29 16:04:27;;;;;;;2.10;1.30;;;;;;;-145.79;100.00;75919.22;5245845;28;20558;-67
2023/10/29 16:06:59;;;;;;;3.03;1.55;;;;;;;-145.79;100.00;75927.72;5246758;28;20068;-67
2023/10/29 16:09:32;;;;;;;4.15;1.55;;;;;;;-145.79;100.00;75925.59;5247011;28;20028;-66
2023/10/29 16:12:07;;;;;;;2.22;1.40;;;;;;;-145.79;100.00;75925.59;5247596;28;20034;-67
2023/10/29 16:14:39;;;;;;;2.63;1.88;;;;;;;-145.79;100.00;75927.72;5241869;28;20060;-67
2023/10/29 16:17:10;;;;;;;2.95;1.20;;;;;;;-145.79;100.00;75923.47;5245371;28;20072;-67
2023/10/29 16:19:44;;;;;;;2.67;2.10;;;;;;;-145.79;99.99;75923.47;5244254;28;20083;-66
2023/10/29 16:22:16;;;;;;;2.33;1.20;;;;;;;-145.79;99.57;75923.47;5238008;28;20460;-67
2023/10/29 16:24:49;;;;;;;2.40;1.63;;;;;;;-145.79;99.29;75923.47;5247033;28;20056;-67
2023/10/29 16:27:21;;;;;;;3.53;1.48;;;;;;;-145.79;98.21;75923.47;5245601;28;20033;-67
2023/10/29 16:29:54;;;;;;;6.28;2.83;;;;;;;-145.79;98.17;75923.47;5257150;28;20017;-68
2023/10/29 16:32:25;;;;;;;2.90;1.58;;;;;;;-145.79;96.94;75919.22;5242161;28;20064;-66
2023/10/29 16:34:57;;;;;;;3.05;1.70;;;;;;;-145.79;96.99;75925.59;5251350;28;20025;-66
2023/10/29 16:37:28;;;;;;;4.03;1.67;;;;;;;-145.79;96.96;75931.94;5250884;28;20021;-66
2023/10/29 16:40:00;;;;;;;2.72;2.38;;;;;;;-145.79;97.35;75936.19;5241196;28;20445;-67
2023/10/29 16:42:33;;;;;;;2.47;1.08;;;;;;;-145.79;96.69;75931.94;5241596;28;20481;-66
2023/10/29 16:45:05;;;;;;;3.35;1.58;;;;;;;-145.79;96.24;75927.72;5244108;28;20396;-66
2023/10/29 16:47:37;;;;;;;1.95;1.42;;;;;;;-145.79;96.69;75927.72;5242881;28;20032;-67
2023/10/29 16:50:08;;;;;;;3.15;1.45;;;;;;;-145.79;95.36;75925.59;5244376;28;20076;-66
2023/10/29 16:52:39;;;;;;;2.10;1.10;;;;;;;-145.79;94.06;75921.34;5243176;28;20381;-67
2023/10/29 16:55:14;;;;;;;3.95;1.92;;;;;;;-145.79;94.19;75929.81;5243357;28;20361;-67
